MST,Max TemperatureF,Mean TemperatureF,Min TemperatureF,Max Dew PointF,MeanDew PointF,Min DewpointF,Max Humidity, Mean Humidity, Min Humidity, Max Sea Level PressureIn, Mean Sea Level PressureIn, Min Sea Level PressureIn, Max VisibilityMiles, Mean VisibilityMiles, Min VisibilityMiles, Max Wind SpeedMPH, Mean Wind SpeedMPH, Max Gust SpeedMPH,PrecipitationIn, CloudCover, Events, WindDirDegrees
2012-11-1,64,51,37,31,28,24,70,46,22,29.93,29.83,29.75,10,10,10,9,4,,0.00,1,,120
2012-11-2,59,44,28,29,24,20,78,51,23,30.18,30.06,29.88,10,10,10,9,3,,0.00,0,,201
2012-11-3,59,41,22,25,21,18,81,52,23,30.26,30.17,30.11,10,10,10,8,4,,0.00,0,,143
2012-11-4,60,45,29,27,23,18,64,46,28,30.34,30.24,30.13,10,10,10,10,4,,0.00,2,,195
2012-11-5,63,46,28,32,28,24,78,54,30,30.30,30.21,30.09,10,10,10,9,3,,0.00,0,,171
2012-11-6,65,48,31,30,27,24,78,51,24,30.29,30.18,30.05,10,10,10,9,3,,0.00,0,,156
2012-11-7,73,49,24,26,23,19,81,48,14,30.04,29.89,29.72,10,10,10,10,4,17,0.00,0,,197
2012-11-8,54,39,24,29,25,21,81,58,35,29.95,29.81,29.67,10,10,7,16,4,26,0.00,0,,16
2012-11-9,34,28,22,31,28,20,100,88,75,29.78,29.69,29.64,9,3,0,9,4,16,0.41,8,Fog-Snow,292
2012-11-10,26,16,5,25,16,3,92,86,80,30.16,29.83,29.65,10,3,0,12,8,20,0.09,8,Fog-Snow,310
2012-11-11,12,0,-13,5,-4,-16,95,84,73,30.52,30.34,30.18,10,10,4,8,3,13,T,0,Snow,181
2012-11-12,20,5,-10,15,2,-12,92,83,73,30.59,30.50,30.39,10,10,9,9,3,12,0.00,1,Snow,202
2012-11-13,31,21,11,24,16,9,92,84,75,30.47,30.39,30.33,10,10,9,9,4,17,0.00,0,,183
2012-11-14,30,20,10,23,16,9,100,88,75,30.45,30.32,30.25,10,10,9,12,3,14,0.00,0,,183
2012-11-15,35,23,11,25,18,11,100,82,63,30.51,30.41,30.30,10,10,10,12,3,14,0.00,1,,180
2012-11-16,35,23,11,27,20,9,100,86,72,30.27,30.18,30.08,10,10,7,10,2,10,0.00,1,,156
2012-11-17,49,33,17,33,25,16,100,69,38,30.19,30.06,29.86,10,10,8,13,3,14,0.00,0,,137
2012-11-18,54,45,36,35,31,29,75,58,41,30.04,29.87,29.76,10,10,10,14,4,22,0.00,1,,172
2012-11-19,,,,,,,,,,30.11,30.07,30.03,10,10,10,12,4,14,0.00,0,,160
2012-11-20,,,,,,,,,,30.09,30.01,29.92,10,10,7,15,6,21,0.00,0,,162
2012-11-21,,,,,,,,,,29.92,29.82,29.72,10,10,10,38,12,45,0.00,0,,199
2012-11-22,,,,,,,,,,30.46,30.24,29.96,10,10,10,17,7,30,T,2,,243
2012-11-23,,,,,,,,,,30.46,30.31,30.12,10,10,10,7,3,,0.00,0,,199
2012-11-24,,,,,,,,,,30.09,29.98,29.92,10,10,10,10,3,,0.00,4,,198
2012-11-25,,,,,,,,,,30.17,29.95,29.88,10,9,2,15,7,,0.10,8,Rain,347
2012-11-26,36,30,21,24,22,18,88,72,56,30.30,30.21,30.14,10,10,10,10,6,,0.00,2,,160
2012-11-27,42,30,17,27,21,15,92,69,45,30.31,30.25,30.12,10,10,10,9,2,10,0.00,0,,189
2012-11-28,46,35,24,30,25,21,92,71,49,30.24,30.14,29.99,10,10,10,9,2,10,0.00,0,,205
2012-11-29,54,39,24,31,27,24,92,64,35,30.04,29.99,29.94,10,10,10,13,4,14,0.00,0,,153
2012-11-30,60,43,26,33,28,25,92,62,31,29.94,29.81,29.67,10,10,10,17,6,23,0.00,0,,172